Walton, Texas
Current Conditions -  °F | °C
As of 11:15 PM on Friday 21 Nov 2014 (Local Time) from KF44 Reporting Station
Light Rain Light Rain  
Wind Chill: 59°   Ceiling: 1500
Heat Index: 59°   Visibility: 10mi
Dew Point: 55°   Wind: 9mph
Humidity: 88%   Direction: 140°SE
Pressure: 30.14"   Gusts: 16mph
Location:  32.2052°N, 95.8517°W
Report Text: KF44 220515Z AUTO 14008G14KT 10SM -RA BKN015 OVC022 15/13 A3014 RMK AO2
Loading
Personal Weather Stations






























Interactive Weather Map New forecast layout! Learn more

10-Day Weather Forecast

Advertisements
Track Severe Weather on mobile